Lyla — ZJL9491 — position and weather

sailwx.info

Track history (hours):
 
Tides and Currents Weather Stations Pressure Air Temp Water Temp Dewpoint Dewpoint Depression Visibility Wind Speed Wind Dir Waves Ship Positions

Lyla

Last reported at 2018-Feb-15 10:21 UTC. Time now 2018-May-22 02:08 UTC.
Position N 17°01' W 061°46'.
Warning: this ship's position is months out of date.

Length 22 m.

Type: Sailing vessel. MMSI: 378112544.

Date/timePositionNaut miles runAvg speedWind from/ knotsBaromVisibWave heightAir tempDewpointWater temp
2018-Feb-15 10:21N 17°01' W 061°46'0 0.0
2018-Feb-15 10:00N 17°01' W 061°46'0 0.0
2018-Feb-15 09:30N 17°01' W 061°46'0 0.0
2018-Feb-15 09:00N 17°01' W 061°46'0 0.0
2018-Feb-15 08:30N 17°01' W 061°46'0 0.0
2018-Feb-15 08:00N 17°01' W 061°46'0 0.0
2018-Feb-15 07:30N 17°01' W 061°46'0 0.0
2018-Feb-15 07:00N 17°01' W 061°46'0 0.0
2018-Feb-15 06:24N 17°01' W 061°46'0 0.0
2018-Feb-15 06:00N 17°01' W 061°46'0 0.0
2018-Feb-15 05:24N 17°01' W 061°46'0 0.0
2018-Feb-15 05:00N 17°01' W 061°46'0 0.0
2018-Feb-15 04:30N 17°01' W 061°46'0 0.0
2018-Feb-15 03:57N 17°01' W 061°46'0 0.0
2018-Feb-15 03:30N 17°01' W 061°46'0 0.0
2018-Feb-15 03:00N 17°01' W 061°46'  
2018-Feb-11 20:18N 17°01' W 061°46'0 0.0
2018-Feb-11 20:00N 17°01' W 061°46'0 0.1
2018-Feb-11 19:30N 17°01' W 061°46'1 2.6
2018-Feb-11 19:01N 17°00' W 061°47'3 6.5
2018-Feb-11 18:31N 16°57' W 061°48'3 6.2
2018-Feb-11 17:59N 16°54' W 061°49'3 5.9
2018-Feb-11 17:30N 16°51' W 061°51'3 5.9
2018-Feb-11 17:01N 16°49' W 061°52'3 5.6
2018-Feb-11 16:30N 16°46' W 061°53'3 5.5
2018-Feb-11 16:00N 16°44' W 061°54'3 5.5
2018-Feb-11 15:28N 16°41' W 061°55'146 6.7
2018-Feb-10 17:33N 14°26' W 060°58'1 8.0
2018-Feb-10 17:24N 14°26' W 060°57'3 6.6
2018-Feb-10 16:57N 14°27' W 060°54'  
Track history (hours):
 
Tides and Currents Weather Stations Pressure Air Temp Water Temp Dewpoint Dewpoint Depression Visibility Wind Speed Wind Dir Waves Ship Positions

Lyla

Last reported at 2018-Feb-15 10:21 UTC. Time now 2018-May-22 02:08 UTC.
Position N 17°01' W 061°46'.
Warning: this ship's position is months out of date.

Length 22 m.

Type: Sailing vessel. MMSI: 378112544.

Date/timePositionNaut miles runAvg speedWind from/ knotsBaromVisibWave heightAir tempDewpointWater temp
2018-Feb-15 10:21N 17°01' W 061°46'0 0.0
2018-Feb-15 10:00N 17°01' W 061°46'0 0.0
2018-Feb-15 09:30N 17°01' W 061°46'0 0.0
2018-Feb-15 09:00N 17°01' W 061°46'0 0.0
2018-Feb-15 08:30N 17°01' W 061°46'0 0.0
2018-Feb-15 08:00N 17°01' W 061°46'0 0.0
2018-Feb-15 07:30N 17°01' W 061°46'0 0.0
2018-Feb-15 07:00N 17°01' W 061°46'0 0.0
2018-Feb-15 06:24N 17°01' W 061°46'0 0.0
2018-Feb-15 06:00N 17°01' W 061°46'0 0.0
2018-Feb-15 05:24N 17°01' W 061°46'0 0.0
2018-Feb-15 05:00N 17°01' W 061°46'0 0.0
2018-Feb-15 04:30N 17°01' W 061°46'0 0.0
2018-Feb-15 03:57N 17°01' W 061°46'0 0.0
2018-Feb-15 03:30N 17°01' W 061°46'0 0.0
2018-Feb-15 03:00N 17°01' W 061°46'  
2018-Feb-11 20:18N 17°01' W 061°46'0 0.0
2018-Feb-11 20:00N 17°01' W 061°46'0 0.1
2018-Feb-11 19:30N 17°01' W 061°46'1 2.6
2018-Feb-11 19:01N 17°00' W 061°47'3 6.5
2018-Feb-11 18:31N 16°57' W 061°48'3 6.2
2018-Feb-11 17:59N 16°54' W 061°49'3 5.9
2018-Feb-11 17:30N 16°51' W 061°51'3 5.9
2018-Feb-11 17:01N 16°49' W 061°52'3 5.6
2018-Feb-11 16:30N 16°46' W 061°53'3 5.5
2018-Feb-11 16:00N 16°44' W 061°54'3 5.5
2018-Feb-11 15:28N 16°41' W 061°55'146 6.7
2018-Feb-10 17:33N 14°26' W 060°58'1 8.0
2018-Feb-10 17:24N 14°26' W 060°57'3 6.6
2018-Feb-10 16:57N 14°27' W 060°54'  

Dump ship's entire track history